Create Custom Reports and Graphics: Custom Report

North/Central Map

Map

15 Minute Data

South County Map

Map

15 Minute Data

Northern Sonoma County Latest

13 Stations

15 Minute Data | America/Los_Angeles
as of 10/18/19 2:12 AM PDT
Station Date Time Temp (°F) RH (%) Dew Pt (°F) Wind Spd (mph) Wind Dir (°) Wind Gust (mph) Latest Rain (In) Daily Rain (In) Daily Min Temp (°F) Daily Max Temp (°F)
Cooley-Rockpile 10/18/19 0200 46.3   4.5 89   8 43.2   6.9 9.8 NNW | 336 13.4   12.1 0.00 0.00 46.1   4.4 46.9   5.8
Cooley Lower Remote 10/18/19 0200 49.8   4.8 81   9 44.3   7.4 2.9 N | 6 6.0   10.0 0.00 0.00 48.6   5.8 51.2   5.1
Rancho Alexander-Cloverdale 10/18/19 0200 45.5   13.9 91   12 43.0   9.7 1.9 N | 354 3.5   3.7 0.00 0.00 44.6   12.5 46.3   14.2
Ranch 38 (Cloverdale-SE) 10/18/19 0200 51.1   7.7 80   1 45.1   7.2 4.8 N | 1 7.8   2.1 0.00 0.00 50.6   8.0 51.5   7.6
Hoffman - Geyserville 10/18/19 0200 49.2   7.0 83   6 44.2   8.6 1.3 NW | 314 3.2   1.9 0.00 0.00 47.8   6.6 49.6   7.2
Geyserville Ranch 3 10/18/19 0200 50.9   7.4 81   2 45.2   8.0 4.6 NW | 316 7.5   3.9 0.00 0.00 49.3   7.6 51.6   7.8
Ranch 40 (Geyserville-NE) 10/18/19 0200 51.2   7.1 79   2 45.0   7.6 5.0 NW | 316 10.2   4.8 0.00 0.00 50.1   6.8 52.0   6.5
Geyserville - S (Nervo Station) 10/18/19 0200 53.6   4.9 72   8 44.9   7.6 2.2 NNW | 328 9.1   7.0 0.00 0.00 52.7   4.5 54.3   5.4
River Oaks (Lytton) 10/18/19 0200 47.2   9.7 89   0 44.3   9.5 2.1 NW | 306 4.0   0.0 0.00 0.00 46.8   8.2 50.4   6.8
Piccolo - Alexander Valley 10/18/19 0200 51.2   4.3 74   4 43.3   5.4 1.9 WSW | 250 9.9   8.3 0.00 0.00 50.8   3.1 52.3   3.9
Red Fan 10/18/19 0200 51.3   4.1 80   10 45.4   7.2 2.0 ENE | 67 5.5   4.3 0.00 0.00 50.1   4.1 53.0   2.9
Landslide 10/18/19 0200 52.0   1.9 78   15 45.3   6.6 0.9 NW | 317 4.2   2.6 0.00 0.00 51.7   0.9 53.8   0.8
Dry Creek Valley 10/18/19 0200 51.4   3.6 77   15 44.3   8.3 4.6 N | 352 6.1   1.8 0.00 0.00 50.4   3.0 52.3   3.3
Max     53.6 91 45.4 9.8 - 13.4 0.00 0.00 52.7 54.3
Avg     50.1 81 44.4 3.4 - 7.0 0.00 - - -
Min     45.5 72 43.0 0.9 - 3.2 0.00 0.00 44.6 46.3

Central Sonoma County Latest

22 Stations

15 Minute Data | America/Los_Angeles
as of 10/18/19 2:12 AM PDT
Station Date Time Temp (°F) RH (%) Dew Pt (°F) Wind Spd (mph) Wind Dir (°) Wind Gust (mph) Latest Rain (In) Daily Rain (In) Daily Min Temp (°F) Daily Max Temp (°F)
Healdsburg - S (Sodini) 10/18/19 0200 53.8   1.3 70   24 44.2   9.1 3.6 NNW | 347 7.4   7.4 0.00 0.00 53.3   1.4 55.2   1.0
Ranch 8 (Windsor-NW) 10/18/19 0200 53.8   2.0 74   16 45.6   7.4 2.0 NW | 323 4.2   0.5 0.00 0.00 52.7   2.8 56.1   1.1
Foothill Ranch 16 10/18/19 0200 54.8   0.5 69   27 44.7   9.3 4.0 NNE | 15 7.6   4.0 0.00 0.00 54.0   0.4 56.4   0.5
Airport Ranch 14 10/18/19 0200 55.5   0.3 66   29 44.5   10.0 1.7 NW | 311 3.4   0.5 0.00 0.00 55.1   0.5 57.0   1.0
Silk Road 10/18/19 0200 47.9   4.6 84   13 43.3   8.5 0.0 N | 354 0.7   0.5 0.00 0.00 46.8   5.2 56.9   1.9
Oak Meadows Ranch 5 10/18/19 0200 56.7   2.0 64   34 44.6   9.5 4.8 W | 279 10.0   6.3 0.00 0.00 56.0   1.6 58.0   2.9
Laughlin Rd (Windsor-South) 10/18/19 0200 55.7   2.0 65   31 44.2   8.6 - - - 0.00 0.00 53.6   0.1 57.6   2.9
Barnes Rd (SE Fulton) 10/18/19 0200 53.1   2.5 71   22 43.8   9.9 0.4 WSW | 247 2.0   1.4 0.00 0.00 51.5   3.8 55.7   0.1
Crinella Ranch 21 10/17/19 1415 71.0   0.9 34   3 41.3   2.8 6.1 NW | 314 12.1   2.3 0.00 0.00 46.8   10.4 72.8   0.1
Denner Ranch Base 10/18/19 0200 53.1   0.8 69   28 43.1   10.0 3.7 NW | 306 5.9   2.6 0.00 0.00 52.8   0.8 55.9   1.2
Guerneville Road (Santa Rosa Plains) 10/18/19 0200 51.8   3.7 72   22 43.2   10.7 3.5 WNW | 292 5.0   0.6 0.00 0.00 44.1   11.1 52.1   3.8
Rich Ranch (Guerneville Rd) 10/18/19 0200 44.6   9.8 94   3 43.0   10.5 - - - - - 44.2   9.2 45.4   9.2
Occidental Rd (Sebastopol) 10/18/19 0200 48.4   7.3 80   20 42.6   13.1 3.2 NW | 306 5.0   1.1 0.00 0.00 43.0   10.9 49.7   6.2
Garrison Ranch 12 10/18/19 0200 49.2   2.1 77   19 42.4   7.9 0.5 S | 170 1.9   0.2 0.00 0.00 48.4   2.4 56.3   3.0
Laughlin Rd (Guerneville) 10/18/19 0200 40.7   11.7 88   2 37.5   12.2 0.3 WSW | 244 1.6   0.3 0.00 0.00 40.4   10.9 43.7   9.0
Korbel Winery 10/18/19 0200 45.6   8.9 89   6 42.6   10.8 0.0 N | 0 0.0   1.4 0.00 0.00 45.3   8.1 47.7   7.0
Shone Farms (Forestville) 10/18/19 0200 55.0   1.1 64   28 43.2   10.8 3.4 W | 273 7.7   3.7 0.00 0.00 54.5   0.6 57.0   0.8
Ranch 30 (Forestville-NE) 10/18/19 0200 52.8   1.5 70   24 43.4   9.4 0.8 NW | 305 3.3   0.2 0.00 0.00 52.2   1.0 55.2   0.5
Dutton Ranch (Graton-West) 10/18/19 0200 49.6   3.9 82   18 44.2   9.3 1.2 W | 259 3.7   0.7 0.00 0.00 49.0   3.9 57.4   2.8
Mill Station Rd (Graton-South) 10/18/19 0200 52.3   2.3 73   25 43.9   10.3 0.4 SSW | 211 2.4   0.0 0.00 0.00 43.1   11.1 55.2   0.6
Burnside Road (Sebastopol Hills) 10/18/19 0200 54.6   0.2 66   34 43.3   11.0 2.8 WNW | 302 7.2   1.9 0.00 0.00 54.0   0.3 57.0   2.0
Hirsch Vineyards 10/18/19 0200 50.1   3.1 73   24 41.7   10.8 4.5 NNW | 340 9.5   2.1 0.00 0.00 49.5   3.6 50.6   3.9
Max     56.7 94 45.6 4.8 - 10.0 0.00 0.00 56.0 58.0
Avg     51.4 74 43.3 2.2 - 4.7 0.00 - - -
Min     40.7 64 37.5 0.0 - 0.0 0.00 0.00 40.4 43.7

Southern Sonoma County Latest

14 Stations

15 Minute Data | America/Los_Angeles
as of 10/18/19 2:12 AM PDT
Station Date Time Temp (°F) RH (%) Dew Pt (°F) Wind Spd (mph) Wind Dir (°) Wind Gust (mph) Latest Rain (In) Daily Rain (In) Daily Min Temp (°F) Daily Max Temp (°F)
Lower Bennett Valley 10/18/19 0200 51.8   3.4 75   22 44.3   10.1 3.5 NNW | 342 6.3   1.8 0.00 0.00 51.2   2.1 53.0   2.6
Kunde - Kenwood 10/18/19 0200 38.7   17.1 90   2 36.0   17.5 0.0 SW | 228 2.5   2.5 0.00 0.00 38.1   17.3 40.1   15.9
Sonoma Valley (Bedrock) 10/18/19 0200 53.5   0.3 64   25 41.7   8.4 6.1 N | 0 10.5   10.5 0.00 0.00 52.9   0.7 54.5   2.6
Arnold (Sonoma) 10/18/19 0200 52.2   5.5 71   18 43.2   11.5 1.4 SE | 126 3.8   7.4 0.00 0.00 51.9   5.7 54.2   3.7
Schellville 10/18/19 0200 48.2   9.2 84   10 43.7   12.0 0.3 W | 265 2.4   7.7 0.00 0.00 48.0   9.3 51.2   6.6
Napoli (Sonoma-SE) 10/18/19 0200 54.4   2.7 64   29 42.4   12.6 0.7 NE | 47 3.4   2.0 0.00 0.00 53.1   3.0 58.0   0.1
Diamond R71 (Carneros) 10/18/19 0200 55.2   1.2 64   33 43.2   12.3 2.7 N | 356 4.3   9.7 0.00 0.00 54.6   1.6 56.3   0.4
Huichica Upper 10/18/19 0200 52.4   4.1 68   28 42.2   13.1 3.5 NE | 34 5.2   6.5 - - 51.7   4.5 56.2   0.8
Huichica-Lower 10/18/19 0200 43.9   13.3 88   5 40.8   14.6 0.8 NNW | 346 2.0   2.6 0.00 0.00 43.8   13.4 45.4   12.0
Stony Point (West Rohnert Park) 10/18/19 0200 42.6   13.6 88   8 39.2   15.9 0.2 E | 86 1.8   7.3 0.00 0.00 41.6   14.6 46.0   10.5
Asellus (Penngrove) 10/18/19 0200 48.1   8.8 82   16 42.9   13.5 2.5 NW | 324 3.5   0.1 0.00 0.00 46.8   9.9 51.2   5.8
Rodger's Creek 10/18/19 0200 49.6   5.3 81   19 43.9   11.0 1.4 WNW | 286 6.1   6.0 0.00 0.00 49.1   5.6 51.6   3.4
Frates R10 (East Petaluma) 10/18/19 0200 52.2   5.2 74   23 44.1   12.5 3.4 WSW | 255 6.4   1.5 0.00 0.00 52.1   4.8 53.7   3.8
Sleepy Hollow-Lakeville 10/18/19 0200 52.7   2.5 71   24 43.5   10.3 4.9 NW | 313 10.0   8.1 0.00 0.00 51.6   3.1 53.0   3.7
Max     55.2 90 44.3 6.1 - 10.5 0.00 0.00 54.6 58.0
Avg     49.7 76 42.2 2.3 - 4.9 0.00 - - -
Min     38.7 64 36.0 0.0 - 1.8 0.00 0.00 38.1 40.1